Time;durP1;ratioP1;P1;durP2;ratioP2;P2;SDS_P1;SDS_P2;PMS_P1;PMS_P2;Temp;Humidity;BMP_temperature;BMP_pressure;BME280_temperature;BME280_humidity;BME280_pressure;Samples;Min_cycle;Max_cycle;Signal;HPM_P1;HPM_P2
2022/12/28 00:01:21;;;;;;;9.88;6.43;;;;;;;;;;4934307;29;20508;-62
2022/12/28 00:03:47;;;;;;;10.20;6.95;;;;;;;;;;4934296;29;20044;-63
2022/12/28 00:06:15;;;;;;;7.93;5.88;;;;;;;;;;4933749;29;20052;-62
2022/12/28 00:08:41;;;;;;;11.13;6.20;;;;;;;;;;4934345;29;20054;-63
2022/12/28 00:11:10;;;;;;;12.30;6.80;;;;;;;;;;4934751;29;20047;-62
2022/12/28 00:13:49;;;;;;;10.10;6.07;;;;;;;;;;4918778;29;20059;-63
2022/12/28 00:16:18;;;;;;;10.35;6.28;;;;;;;;;;4937917;29;20043;-62
2022/12/28 00:18:45;;;;;;;8.95;6.25;;;;;;;;;;4937907;29;20048;-62
2022/12/28 00:21:11;;;;;;;9.73;6.70;;;;;;;;;;4937932;29;20122;-63
2022/12/28 00:23:37;;;;;;;8.77;5.88;;;;;;;;;;4937864;29;20485;-62
2022/12/28 00:26:05;;;;;;;9.55;6.10;;;;;;;;;;4920183;29;20051;-62
2022/12/28 00:28:32;;;;;;;8.60;5.47;;;;;;;;;;4937848;29;20047;-62
2022/12/28 00:30:58;;;;;;;9.98;6.57;;;;;;;;;;4920816;29;20048;-61
2022/12/28 00:33:25;;;;;;;8.52;5.78;;;;;;;;;;4937576;29;20094;-61
2022/12/28 00:35:55;;;;;;;10.85;6.30;;;;;;;;;;4937093;29;20044;-61
2022/12/28 00:38:22;;;;;;;8.75;5.65;;;;;;;;;;4904770;29;20051;-62
2022/12/28 00:40:48;;;;;;;9.07;5.57;;;;;;;;;;4904644;29;20048;-61
2022/12/28 00:43:15;;;;;;;8.10;5.80;;;;;;;;;;4904955;29;20142;-61
2022/12/28 00:45:47;;;;;;;10.25;6.72;;;;;;;;;;4936853;29;20047;-61
2022/12/28 00:48:14;;;;;;;11.98;6.30;;;;;;;;;;4937568;29;20078;-62
2022/12/28 00:50:41;;;;;;;10.05;6.03;;;;;;;;;;4937333;29;20084;-61
2022/12/28 00:53:08;;;;;;;11.38;6.95;;;;;;;;;;4937485;29;20328;-61
2022/12/28 00:55:35;;;;;;;12.27;6.93;;;;;;;;;;4936832;29;20099;-62
2022/12/28 00:58:04;;;;;;;11.57;7.28;;;;;;;;;;4920117;29;20527;-63
2022/12/28 01:00:31;;;;;;;11.00;7.35;;;;;;;;;;4937455;29;20400;-62
2022/12/28 01:02:57;;;;;;;11.07;7.13;;;;;;;;;;4937176;29;20091;-62
2022/12/28 01:05:24;;;;;;;11.27;7.20;;;;;;;;;;4936556;29;20047;-62
2022/12/28 01:07:50;;;;;;;11.35;7.78;;;;;;;;;;4937208;29;20044;-62
2022/12/28 01:10:17;;;;;;;9.55;7.28;;;;;;;;;;4937124;29;20051;-63
2022/12/28 01:12:43;;;;;;;11.90;8.00;;;;;;;;;;4920144;29;20072;-63
2022/12/28 01:15:11;;;;;;;12.90;7.82;;;;;;;;;;4936520;29;20099;-61
2022/12/28 01:17:39;;;;;;;10.15;6.68;;;;;;;;;;4919413;29;20523;-63
2022/12/28 01:20:06;;;;;;;16.77;7.82;;;;;;;;;;4936821;29;20481;-61
2022/12/28 01:22:32;;;;;;;10.13;7.47;;;;;;;;;;4919560;29;20103;-61
2022/12/28 01:24:59;;;;;;;15.50;7.57;;;;;;;;;;4918705;29;20055;-63
2022/12/28 01:27:27;;;;;;;8.00;6.45;;;;;;;;;;4936533;29;20066;-61
2022/12/28 01:29:53;;;;;;;9.38;6.60;;;;;;;;;;4936670;29;20044;-62
2022/12/28 01:32:20;;;;;;;8.15;6.13;;;;;;;;;;4919531;29;20466;-63
2022/12/28 01:34:46;;;;;;;9.18;6.20;;;;;;;;;;4936572;29;20039;-62
2022/12/28 01:37:12;;;;;;;10.20;6.53;;;;;;;;;;4935852;29;20075;-63
2022/12/28 01:39:39;;;;;;;12.05;6.57;;;;;;;;;;4936210;29;20040;-63
2022/12/28 01:42:09;;;;;;;9.82;6.55;;;;;;;;;;4936142;29;20039;-62
2022/12/28 01:44:38;;;;;;;7.72;6.03;;;;;;;;;;4936461;29;20091;-62
2022/12/28 01:47:08;;;;;;;8.43;6.20;;;;;;;;;;4935726;29;20512;-62
2022/12/28 01:49:43;;;;;;;9.23;5.70;;;;;;;;;;4936263;29;20047;-62
2022/12/28 01:52:11;;;;;;;9.90;5.32;;;;;;;;;;4936332;29;20095;-62
2022/12/28 01:54:43;;;;;;;8.35;6.13;;;;;;;;;;4919149;29;20473;-62
2022/12/28 01:57:10;;;;;;;9.00;5.47;;;;;;;;;;4918527;29;20056;-62
2022/12/28 01:59:40;;;;;;;7.47;5.45;;;;;;;;;;4919180;29;20091;-61
2022/12/28 02:02:07;;;;;;;7.75;5.22;;;;;;;;;;4918935;29;20401;-62
2022/12/28 02:04:34;;;;;;;11.98;5.97;;;;;;;;;;4918713;29;20047;-63
2022/12/28 02:07:01;;;;;;;7.63;5.40;;;;;;;;;;4935070;29;20095;-63
2022/12/28 02:09:40;;;;;;;6.60;5.00;;;;;;;;;;4935824;29;20048;-63
2022/12/28 02:12:09;;;;;;;7.20;4.50;;;;;;;;;;4935794;29;20052;-62
2022/12/28 02:14:36;;;;;;;10.05;5.00;;;;;;;;;;4918773;29;20394;-62
2022/12/28 02:17:02;;;;;;;7.45;4.88;;;;;;;;;;4935110;29;20044;-63
2022/12/28 02:19:47;;;;;;;6.95;4.68;;;;;;;;;;4935398;29;20043;-62
2022/12/28 02:22:32;;;;;;;5.90;4.35;;;;;;;;;;4935528;29;20504;-62
2022/12/28 02:25:21;;;;;;;6.47;4.22;;;;;;;;;;4902732;29;20504;-62
2022/12/28 02:27:56;;;;;;;6.68;4.47;;;;;;;;;;4935396;29;20095;-62
2022/12/28 02:30:23;;;;;;;7.97;4.18;;;;;;;;;;4918236;29;20044;-63
2022/12/28 02:32:55;;;;;;;8.07;4.30;;;;;;;;;;4918090;29;20043;-61
2022/12/28 02:35:37;;;;;;;10.05;4.82;;;;;;;;;;4917501;29;20056;-61
2022/12/28 02:38:06;;;;;;;11.48;4.80;;;;;;;;;;4917767;29;20504;-62
2022/12/28 02:40:39;;;;;;;8.93;4.68;;;;;;;;;;4918001;29;20486;-61
2022/12/28 02:43:05;;;;;;;10.23;5.30;;;;;;;;;;4918007;29;20526;-61
2022/12/28 02:51:31;;;;;;;6.57;4.18;;;;;;;;;;4917920;29;20067;-61
2022/12/28 02:57:14;;;;;;;6.78;3.65;;;;;;;;;;4934455;29;20040;-60
2022/12/28 02:59:53;;;;;;;7.32;3.67;;;;;;;;;;4934678;29;20040;-61
2022/12/28 03:02:36;;;;;;;7.65;4.03;;;;;;;;;;4934973;29;20054;-60
2022/12/28 03:05:08;;;;;;;8.20;4.03;;;;;;;;;;4917070;29;20044;-61
2022/12/28 03:10:28;;;;;;;5.60;3.92;;;;;;;;;;4934543;29;20069;-61
2022/12/28 03:12:57;;;;;;;5.70;3.70;;;;;;;;;;4917539;29;20530;-61
2022/12/28 03:15:35;;;;;;;7.25;3.72;;;;;;;;;;4933896;29;20051;-61
2022/12/28 03:32:00;;;;;;;6.65;3.25;;;;;;;;;;4917329;29;20413;-62
2022/12/28 03:34:27;;;;;;;7.45;3.80;;;;;;;;;;4934682;29;20063;-62
2022/12/28 03:37:17;;;;;;;6.75;3.60;;;;;;;;;;4916914;29;20424;-62
2022/12/28 03:39:49;;;;;;;5.70;3.33;;;;;;;;;;4901539;29;20103;-62
2022/12/28 03:45:14;;;;;;;5.43;3.70;;;;;;;;;;4916531;29;20051;-62
2022/12/28 03:48:01;;;;;;;3.40;2.63;;;;;;;;;;4920222;29;20039;-62
2022/12/28 03:50:29;;;;;;;4.47;2.88;;;;;;;;;;4923412;29;20058;-63
2022/12/28 03:52:59;;;;;;;4.65;3.00;;;;;;;;;;4940522;29;20044;-62
2022/12/28 03:55:27;;;;;;;9.20;3.85;;;;;;;;;;4923153;29;20508;-63
2022/12/28 03:57:54;;;;;;;5.63;3.25;;;;;;;;;;4940517;29;20504;-61
2022/12/28 04:00:25;;;;;;;6.38;2.80;;;;;;;;;;4923254;29;20043;-63
2022/12/28 04:02:52;;;;;;;7.10;2.95;;;;;;;;;;4923648;29;20047;-61
2022/12/28 04:05:20;;;;;;;4.95;3.10;;;;;;;;;;4923394;29;20412;-61
2022/12/28 04:07:47;;;;;;;5.80;2.80;;;;;;;;;;4940904;29;20035;-61
2022/12/28 04:10:13;;;;;;;7.00;2.90;;;;;;;;;;4924056;29;20412;-61
2022/12/28 04:12:40;;;;;;;4.65;2.92;;;;;;;;;;4923922;29;20106;-61
2022/12/28 04:15:42;;;;;;;5.10;2.95;;;;;;;;;;4921153;29;20063;-61
2022/12/28 04:18:08;;;;;;;4.95;2.90;;;;;;;;;;4923642;29;20525;-61
2022/12/28 04:20:36;;;;;;;3.95;2.83;;;;;;;;;;4925026;29;20456;-61
2022/12/28 04:23:02;;;;;;;6.80;2.67;;;;;;;;;;4941092;29;20040;-61
2022/12/28 04:25:30;;;;;;;6.47;3.35;;;;;;;;;;4923881;29;20130;-61
2022/12/28 04:27:57;;;;;;;4.93;2.63;;;;;;;;;;4924084;29;20047;-60
2022/12/28 04:30:59;;;;;;;5.00;2.80;;;;;;;;;;4918727;29;20156;-61
2022/12/28 04:33:27;;;;;;;4.55;2.78;;;;;;;;;;4923916;29;20115;-60
2022/12/28 04:35:53;;;;;;;7.25;2.92;;;;;;;;;;4941081;29;20110;-61
2022/12/28 04:38:20;;;;;;;3.33;2.42;;;;;;;;;;4923581;29;20051;-61
2022/12/28 04:40:46;;;;;;;5.05;2.40;;;;;;;;;;4940692;29;20501;-61
2022/12/28 04:43:13;;;;;;;4.63;2.60;;;;;;;;;;4940649;29;20039;-61
2022/12/28 04:45:39;;;;;;;4.97;2.72;;;;;;;;;;4922924;29;20054;-61
2022/12/28 04:48:05;;;;;;;4.20;2.50;;;;;;;;;;4940861;29;20420;-61
2022/12/28 04:50:32;;;;;;;5.95;2.65;;;;;;;;;;4940525;29;20413;-62
2022/12/28 04:52:59;;;;;;;4.35;2.40;;;;;;;;;;4940496;29;20500;-61
2022/12/28 04:55:25;;;;;;;3.05;2.40;;;;;;;;;;4940410;29;20043;-61
2022/12/28 04:57:58;;;;;;;8.50;2.67;;;;;;;;;;4940499;29;20047;-61
2022/12/28 05:03:13;;;;;;;5.60;2.30;;;;;;;;;;5078996;23;20040;-60
2022/12/28 05:05:40;;;;;;;5.85;2.85;;;;;;;;;;4936975;29;20099;-60
2022/12/28 05:08:06;;;;;;;5.20;2.90;;;;;;;;;;4938679;29;20469;-60
2022/12/28 05:10:33;;;;;;;5.05;2.53;;;;;;;;;;4937689;29;20054;-60
2022/12/28 05:12:59;;;;;;;4.85;2.45;;;;;;;;;;4937560;29;20047;-60
2022/12/28 05:15:25;;;;;;;3.00;2.30;;;;;;;;;;4937202;29;20472;-60
2022/12/28 05:17:53;;;;;;;6.45;3.30;;;;;;;;;;4920095;29;20048;-60
2022/12/28 05:20:19;;;;;;;3.58;1.75;;;;;;;;;;4937244;29;20048;-61
2022/12/28 05:22:46;;;;;;;3.53;2.20;;;;;;;;;;4920810;29;20046;-61
2022/12/28 05:25:12;;;;;;;6.40;2.58;;;;;;;;;;4938255;29;20461;-61
2022/12/28 05:27:39;;;;;;;6.35;2.88;;;;;;;;;;4920910;29;20071;-60
2022/12/28 05:30:06;;;;;;;3.75;2.08;;;;;;;;;;4937397;29;20066;-61
2022/12/28 05:32:32;;;;;;;5.57;2.17;;;;;;;;;;4920082;29;20130;-61
2022/12/28 05:34:58;;;;;;;4.22;2.40;;;;;;;;;;4920052;29;20063;-61
2022/12/28 05:37:25;;;;;;;3.60;2.15;;;;;;;;;;4936806;29;20066;-62
2022/12/28 05:39:52;;;;;;;3.75;2.00;;;;;;;;;;4938138;29;20404;-61
2022/12/28 05:42:18;;;;;;;3.67;1.98;;;;;;;;;;4920097;29;20114;-61
2022/12/28 05:44:45;;;;;;;6.63;2.95;;;;;;;;;;4919870;29;20040;-61
2022/12/28 05:47:12;;;;;;;4.53;2.35;;;;;;;;;;4936188;29;20095;-61
2022/12/28 05:49:39;;;;;;;4.07;2.42;;;;;;;;;;4936747;29;20066;-61
2022/12/28 05:52:05;;;;;;;4.28;2.40;;;;;;;;;;4936587;29;20043;-61
2022/12/28 05:54:31;;;;;;;6.50;2.22;;;;;;;;;;4936559;29;20048;-61
2022/12/28 05:56:58;;;;;;;2.92;2.05;;;;;;;;;;4936110;29;20107;-61
2022/12/28 05:59:25;;;;;;;2.55;2.03;;;;;;;;;;4936541;29;20048;-61
2022/12/28 06:01:51;;;;;;;4.35;2.50;;;;;;;;;;4936552;29;20142;-64
2022/12/28 06:04:19;;;;;;;2.78;2.33;;;;;;;;;;4936456;29;20040;-61
2022/12/28 06:06:46;;;;;;;3.83;2.17;;;;;;;;;;4935886;29;20055;-61
2022/12/28 06:09:12;;;;;;;5.53;2.30;;;;;;;;;;4936405;29;20048;-62
2022/12/28 06:11:39;;;;;;;3.08;2.08;;;;;;;;;;4935329;29;20090;-61
2022/12/28 06:14:06;;;;;;;3.67;2.25;;;;;;;;;;4936468;29;20051;-61
2022/12/28 06:16:33;;;;;;;4.22;2.30;;;;;;;;;;4918539;29;20054;-61
2022/12/28 06:19:03;;;;;;;4.22;2.00;;;;;;;;;;4936301;29;20055;-61
2022/12/28 06:21:30;;;;;;;3.65;2.15;;;;;;;;;;4936211;29;20048;-60
2022/12/28 06:23:57;;;;;;;4.78;2.50;;;;;;;;;;4936184;29;20086;-61
2022/12/28 06:26:24;;;;;;;5.20;2.20;;;;;;;;;;4935635;29;20481;-61
2022/12/28 06:28:50;;;;;;;4.80;2.35;;;;;;;;;;4943608;29;20100;-59
2022/12/28 06:31:18;;;;;;;4.35;2.40;;;;;;;;;;4948333;29;20062;-58
2022/12/28 06:33:45;;;;;;;3.58;1.92;;;;;;;;;;4924285;29;20043;-60
2022/12/28 06:36:16;;;;;;;4.35;2.30;;;;;;;;;;4935475;29;20452;-60
2022/12/28 06:38:46;;;;;;;3.33;2.20;;;;;;;;;;4936015;29;20044;-61
2022/12/28 06:41:13;;;;;;;6.55;2.33;;;;;;;;;;4935958;29;20044;-61
2022/12/28 06:43:41;;;;;;;3.80;2.33;;;;;;;;;;4935873;29;20051;-61
2022/12/28 06:46:08;;;;;;;2.45;2.17;;;;;;;;;;4918296;29;20059;-61
2022/12/28 06:48:35;;;;;;;5.43;2.38;;;;;;;;;;4935593;29;20063;-61
2022/12/28 06:51:04;;;;;;;5.80;2.30;;;;;;;;;;4918492;29;20567;-61
2022/12/28 06:53:32;;;;;;;3.47;2.13;;;;;;;;;;4918714;29;20095;-61
2022/12/28 06:56:00;;;;;;;3.63;2.15;;;;;;;;;;4935145;29;20040;-61
2022/12/28 06:58:27;;;;;;;3.13;2.10;;;;;;;;;;4935547;29;20492;-61
2022/12/28 07:00:54;;;;;;;3.58;2.05;;;;;;;;;;4918695;29;20047;-60
2022/12/28 07:03:21;;;;;;;5.65;2.53;;;;;;;;;;4935277;29;20051;-60
2022/12/28 07:05:48;;;;;;;5.47;3.75;;;;;;;;;;4934908;29;20389;-60
2022/12/28 07:08:14;;;;;;;5.60;2.70;;;;;;;;;;4935444;29;20036;-60
2022/12/28 07:10:41;;;;;;;5.35;2.15;;;;;;;;;;4936239;29;20043;-62
2022/12/28 07:13:07;;;;;;;3.95;2.40;;;;;;;;;;4935131;29;20048;-61
2022/12/28 07:15:34;;;;;;;3.65;2.17;;;;;;;;;;4935052;29;20416;-61
2022/12/28 07:18:01;;;;;;;4.97;2.20;;;;;;;;;;4935313;29;20047;-61
2022/12/28 07:20:27;;;;;;;3.65;2.10;;;;;;;;;;4918052;29;20051;-61
2022/12/28 07:22:54;;;;;;;3.05;2.38;;;;;;;;;;4917494;29;20052;-62
2022/12/28 07:25:20;;;;;;;6.97;2.60;;;;;;;;;;4934548;29;20044;-61
2022/12/28 07:27:47;;;;;;;5.68;2.30;;;;;;;;;;4935027;29;20043;-60
2022/12/28 07:30:13;;;;;;;4.40;2.63;;;;;;;;;;4935135;29;20111;-61
2022/12/28 07:32:39;;;;;;;3.60;2.25;;;;;;;;;;4937110;29;20055;-61
2022/12/28 07:35:06;;;;;;;2.75;2.08;;;;;;;;;;4936871;29;20051;-62
2022/12/28 07:37:32;;;;;;;3.75;2.10;;;;;;;;;;4935580;29;20100;-61
2022/12/28 07:39:59;;;;;;;5.32;2.40;;;;;;;;;;4935237;29;20052;-61
2022/12/28 07:42:27;;;;;;;6.15;3.65;;;;;;;;;;4935052;29;20412;-60
2022/12/28 07:44:53;;;;;;;3.97;2.50;;;;;;;;;;4935218;29;20044;-60
2022/12/28 07:47:20;;;;;;;4.07;2.25;;;;;;;;;;4934570;29;20433;-60
2022/12/28 07:49:46;;;;;;;5.63;2.47;;;;;;;;;;4935078;29;20051;-60
2022/12/28 07:52:13;;;;;;;6.35;2.20;;;;;;;;;;4934505;29;20516;-61
2022/12/28 07:54:39;;;;;;;5.72;2.42;;;;;;;;;;4934873;29;20056;-62
2022/12/28 07:57:05;;;;;;;4.90;2.72;;;;;;;;;;4934321;29;20047;-60
2022/12/28 07:59:32;;;;;;;2.70;2.25;;;;;;;;;;4917725;29;20489;-61
2022/12/28 08:01:58;;;;;;;4.45;2.63;;;;;;;;;;4934622;29;20044;-61
2022/12/28 08:04:25;;;;;;;4.00;2.33;;;;;;;;;;4934650;29;20071;-60
2022/12/28 08:06:51;;;;;;;6.75;2.70;;;;;;;;;;4917377;29;20400;-60
2022/12/28 08:09:18;;;;;;;4.97;2.53;;;;;;;;;;4934617;29;20043;-61
2022/12/28 08:11:44;;;;;;;6.40;2.40;;;;;;;;;;4917535;29;20062;-61
2022/12/28 08:14:11;;;;;;;4.95;2.70;;;;;;;;;;4934609;29;20386;-61
2022/12/28 08:16:38;;;;;;;5.03;2.78;;;;;;;;;;4934166;29;20517;-61
2022/12/28 08:19:05;;;;;;;5.63;2.28;;;;;;;;;;4934569;29;20087;-61
2022/12/28 08:21:39;;;;;;;6.35;2.97;;;;;;;;;;4934348;29;20405;-59
2022/12/28 08:24:06;;;;;;;7.13;2.50;;;;;;;;;;4934626;29;20047;-59
2022/12/28 08:26:34;;;;;;;4.15;2.78;;;;;;;;;;4934061;29;20433;-60
2022/12/28 08:29:05;;;;;;;5.60;2.40;;;;;;;;;;4934639;29;20044;-61
2022/12/28 08:31:33;;;;;;;3.88;1.85;;;;;;;;;;4934355;29;20112;-60
2022/12/28 08:34:01;;;;;;;4.53;2.10;;;;;;;;;;4934574;29;20131;-60
2022/12/28 08:36:27;;;;;;;4.63;2.20;;;;;;;;;;4937667;29;20556;-60
2022/12/28 08:38:54;;;;;;;5.80;2.80;;;;;;;;;;4921006;29;20055;-62
2022/12/28 08:41:21;;;;;;;5.78;2.40;;;;;;;;;;4938030;29;20415;-61
2022/12/28 08:43:48;;;;;;;2.75;2.20;;;;;;;;;;4938253;29;20055;-61
2022/12/28 08:46:16;;;;;;;3.22;1.98;;;;;;;;;;4938409;29;20050;-61
2022/12/28 08:48:43;;;;;;;2.90;1.90;;;;;;;;;;4938435;29;20146;-62
2022/12/28 08:51:10;;;;;;;5.45;2.20;;;;;;;;;;4920973;29;20508;-61
2022/12/28 08:53:37;;;;;;;3.00;2.15;;;;;;;;;;4939531;29;20099;-60
2022/12/28 08:56:05;;;;;;;3.83;2.53;;;;;;;;;;4940332;29;20075;-61
2022/12/28 08:58:32;;;;;;;3.10;2.13;;;;;;;;;;4923232;29;20051;-61
2022/12/28 09:01:07;;;;;;;3.70;2.05;;;;;;;;;;4940303;29;20043;-60
2022/12/28 09:03:34;;;;;;;3.00;1.92;;;;;;;;;;4940455;29;20040;-61
2022/12/28 09:06:02;;;;;;;5.15;2.78;;;;;;;;;;4939795;29;20044;-61
2022/12/28 09:08:28;;;;;;;4.00;2.50;;;;;;;;;;4939798;29;20065;-61
2022/12/28 09:10:57;;;;;;;2.97;2.08;;;;;;;;;;4940130;29;20047;-61
2022/12/28 09:13:24;;;;;;;5.53;3.25;;;;;;;;;;4939243;29;20492;-60
2022/12/28 09:15:58;;;;;;;5.60;2.60;;;;;;;;;;4936874;29;20046;-59
2022/12/28 09:18:24;;;;;;;5.20;2.45;;;;;;;;;;4936985;29;20055;-59
2022/12/28 09:20:51;;;;;;;3.65;2.30;;;;;;;;;;4937168;29;20047;-58
2022/12/28 09:23:17;;;;;;;3.70;2.45;;;;;;;;;;4937005;29;20044;-59
2022/12/28 09:25:44;;;;;;;3.28;1.95;;;;;;;;;;4936526;29;20040;-59
2022/12/28 09:28:10;;;;;;;3.00;2.22;;;;;;;;;;4937043;29;20048;-59
2022/12/28 09:30:36;;;;;;;3.60;1.77;;;;;;;;;;4937163;29;20048;-59
2022/12/28 09:35:48;;;;;;;3.40;2.45;;;;;;;;;;4936586;29;20537;-58
2022/12/28 09:38:14;;;;;;;4.32;2.92;;;;;;;;;;4936837;29;20054;-59
2022/12/28 09:40:41;;;;;;;4.05;2.22;;;;;;;;;;4936724;29;20047;-59
2022/12/28 09:43:10;;;;;;;6.22;2.88;;;;;;;;;;4937074;29;20039;-59
2022/12/28 09:45:36;;;;;;;5.53;3.10;;;;;;;;;;4937413;29;20497;-60
2022/12/28 09:48:07;;;;;;;4.97;2.50;;;;;;;;;;4937979;29;20036;-60
2022/12/28 09:50:34;;;;;;;6.07;2.50;;;;;;;;;;4936979;29;20126;-59
2022/12/28 09:53:19;;;;;;;7.15;2.72;;;;;;;;;;4919824;29;20051;-61
2022/12/28 09:55:54;;;;;;;4.10;2.22;;;;;;;;;;4936357;29;20512;-59
2022/12/28 09:58:21;;;;;;;5.40;3.10;;;;;;;;;;4936740;29;20508;-60
2022/12/28 10:00:49;;;;;;;6.50;2.30;;;;;;;;;;4919526;29;20106;-60
2022/12/28 10:03:21;;;;;;;3.60;2.58;;;;;;;;;;4936281;29;20055;-60
2022/12/28 10:05:49;;;;;;;6.25;2.47;;;;;;;;;;4936467;29;20044;-60
2022/12/28 10:08:18;;;;;;;3.80;2.50;;;;;;;;;;4936497;29;20090;-61
2022/12/28 10:10:44;;;;;;;3.88;2.05;;;;;;;;;;4936539;29;20079;-61
2022/12/28 10:13:24;;;;;;;4.03;2.30;;;;;;;;;;4936500;29;20095;-61
2022/12/28 10:16:17;;;;;;;4.00;2.47;;;;;;;;;;4935694;29;20050;-62
2022/12/28 10:18:44;;;;;;;5.20;2.88;;;;;;;;;;4936782;29;20050;-62
2022/12/28 10:21:11;;;;;;;4.63;3.00;;;;;;;;;;4936593;29;20505;-61
2022/12/28 10:23:39;;;;;;;6.72;2.92;;;;;;;;;;4936551;29;20107;-62
2022/12/28 10:26:25;;;;;;;3.70;2.72;;;;;;;;;;4921956;29;20067;-61
2022/12/28 10:28:53;;;;;;;4.18;2.00;;;;;;;;;;4942482;29;20512;-62
2022/12/28 10:31:33;;;;;;;3.50;1.48;;;;;;;;;;4946811;29;20047;-62
2022/12/28 10:34:00;;;;;;;3.60;1.85;;;;;;;;;;4947856;29;20079;-62
2022/12/28 10:36:31;;;;;;;2.25;1.77;;;;;;;;;;4943027;29;20102;-61
2022/12/28 10:38:58;;;;;;;5.32;2.15;;;;;;;;;;4936511;29;20052;-62
2022/12/28 10:41:32;;;;;;;2.40;1.52;;;;;;;;;;4936105;29;20086;-62
2022/12/28 10:43:59;;;;;;;3.28;1.60;;;;;;;;;;4936417;29;20043;-62
2022/12/28 10:46:59;;;;;;;4.88;2.30;;;;;;;;;;4918557;29;20048;-62
2022/12/28 10:49:26;;;;;;;3.00;1.80;;;;;;;;;;4935834;29;20059;-62
2022/12/28 10:52:01;;;;;;;2.42;2.00;;;;;;;;;;4935813;29;20107;-62
2022/12/28 10:54:29;;;;;;;2.47;1.77;;;;;;;;;;4935900;29;20056;-62
2022/12/28 10:56:56;;;;;;;2.15;1.73;;;;;;;;;;4934657;29;20442;-63
2022/12/28 10:59:26;;;;;;;3.55;1.92;;;;;;;;;;4935609;29;20078;-61
2022/12/28 11:01:55;;;;;;;2.65;2.03;;;;;;;;;;4935171;29;20036;-62
2022/12/28 11:04:23;;;;;;;2.30;2.10;;;;;;;;;;4935467;29;20042;-61
2022/12/28 11:06:51;;;;;;;2.70;2.17;;;;;;;;;;4935066;29;20086;-61
2022/12/28 11:09:22;;;;;;;3.70;1.77;;;;;;;;;;4935310;29;20047;-62
2022/12/28 11:11:49;;;;;;;2.33;1.70;;;;;;;;;;4935437;29;20107;-62
2022/12/28 11:14:22;;;;;;;4.13;2.15;;;;;;;;;;4935790;29;20048;-61
2022/12/28 11:16:48;;;;;;;5.43;1.90;;;;;;;;;;4934921;29;20059;-62
2022/12/28 11:19:15;;;;;;;2.17;1.83;;;;;;;;;;4935324;29;20122;-62
2022/12/28 11:21:42;;;;;;;2.40;1.90;;;;;;;;;;4935111;29;20102;-60
2022/12/28 11:24:15;;;;;;;3.65;1.70;;;;;;;;;;4918284;29;20050;-61
2022/12/28 11:26:44;;;;;;;1.73;1.42;;;;;;;;;;4934570;29;20050;-62
2022/12/28 11:29:12;;;;;;;3.25;1.70;;;;;;;;;;4935270;29;20047;-62
2022/12/28 11:31:43;;;;;;;2.50;1.65;;;;;;;;;;4935095;29;20106;-62
2022/12/28 11:34:14;;;;;;;4.82;2.03;;;;;;;;;;4918509;29;20139;-62
2022/12/28 11:36:41;;;;;;;3.08;2.00;;;;;;;;;;4917604;29;20051;-62
2022/12/28 11:39:26;;;;;;;2.88;1.40;;;;;;;;;;4935512;29;20059;-62
2022/12/28 11:41:53;;;;;;;2.95;1.45;;;;;;;;;;4935186;29;20390;-62
2022/12/28 11:44:39;;;;;;;3.22;1.92;;;;;;;;;;4921303;29;20067;-61
2022/12/28 11:47:15;;;;;;;3.63;1.67;;;;;;;;;;4934950;29;20377;-61
2022/12/28 11:49:42;;;;;;;3.95;1.77;;;;;;;;;;4919087;29;20416;-62
2022/12/28 11:52:15;;;;;;;1.90;1.70;;;;;;;;;;4919566;29;20536;-62
2022/12/28 11:54:51;;;;;;;2.35;1.42;;;;;;;;;;4936020;29;20117;-61
2022/12/28 11:57:33;;;;;;;3.38;1.80;;;;;;;;;;4934499;29;20047;-60
2022/12/28 12:00:14;;;;;;;3.55;1.67;;;;;;;;;;4917934;29;20476;-60
2022/12/28 12:02:55;;;;;;;3.63;1.58;;;;;;;;;;4934575;29;20035;-61
2022/12/28 12:05:22;;;;;;;;;;;;;;;;;;4934732;29;20051;-61
2022/12/28 12:07:48;;;;;;;3.20;1.70;;;;;;;;;;4934631;29;20272;-60
2022/12/28 12:10:28;;;;;;;6.43;3.78;;;;;;;;;;4938334;29;20043;-60
2022/12/28 12:12:55;;;;;;;3.92;1.70;;;;;;;;;;4921500;29;20047;-60
2022/12/28 12:15:36;;;;;;;3.72;2.10;;;;;;;;;;4938165;29;20047;-60
2022/12/28 12:18:04;;;;;;;4.55;3.13;;;;;;;;;;4938390;29;20501;-61
2022/12/28 12:20:34;;;;;;;4.82;2.13;;;;;;;;;;4921505;29;20130;-60
2022/12/28 12:23:04;;;;;;;1.55;1.45;;;;;;;;;;4938215;29;20099;-60
2022/12/28 12:25:37;;;;;;;2.13;1.63;;;;;;;;;;4937841;29;20048;-61
2022/12/28 12:28:24;;;;;;;9.52;2.70;;;;;;;;;;4938453;29;20065;-60
2022/12/28 12:30:51;;;;;;;3.47;2.10;;;;;;;;;;4937769;29;20054;-60
2022/12/28 12:33:23;;;;;;;1.90;1.55;;;;;;;;;;4938155;29;20048;-60
2022/12/28 12:36:04;;;;;;;2.25;1.80;;;;;;;;;;4937681;29;20424;-60
2022/12/28 12:38:39;;;;;;;3.80;1.98;;;;;;;;;;4921018;29;20066;-60
2022/12/28 12:41:15;;;;;;;3.45;1.83;;;;;;;;;;4938014;29;20043;-58
2022/12/28 12:43:55;;;;;;;3.17;1.92;;;;;;;;;;4938307;29;20051;-60
2022/12/28 12:46:36;;;;;;;4.78;1.67;;;;;;;;;;4937519;29;20520;-60
2022/12/28 12:49:10;;;;;;;1.30;1.20;;;;;;;;;;4938144;29;20048;-61
2022/12/28 12:51:45;;;;;;;1.98;1.40;;;;;;;;;;4937860;29;20511;-60
2022/12/28 12:54:39;;;;;;;2.33;1.50;;;;;;;;;;4937791;29;20056;-58
2022/12/28 12:57:14;;;;;;;1.75;1.40;;;;;;;;;;4938027;29;20051;-60
2022/12/28 13:00:02;;;;;;;1.85;1.23;;;;;;;;;;4938649;29;20052;-59
2022/12/28 13:02:28;;;;;;;3.05;1.60;;;;;;;;;;4921076;29;20044;-60
2022/12/28 13:04:55;;;;;;;1.98;1.38;;;;;;;;;;4937597;29;20504;-60
2022/12/28 13:07:24;;;;;;;2.80;1.50;;;;;;;;;;4937706;29;20043;-60
2022/12/28 13:09:52;;;;;;;2.33;1.40;;;;;;;;;;4920965;29;20147;-61
2022/12/28 13:12:19;;;;;;;4.43;1.67;;;;;;;;;;4920901;29;20519;-59
2022/12/28 13:14:47;;;;;;;1.25;1.13;;;;;;;;;;4920746;29;20055;-62
2022/12/28 13:17:18;;;;;;;2.90;1.52;;;;;;;;;;4920022;29;20047;-62
2022/12/28 13:19:45;;;;;;;3.08;1.30;;;;;;;;;;4936973;29;20056;-63
2022/12/28 13:22:28;;;;;;;1.65;1.20;;;;;;;;;;4936970;29;20051;-62
2022/12/28 13:24:57;;;;;;;6.10;1.57;;;;;;;;;;4937263;29;20071;-61
2022/12/28 13:27:28;;;;;;;1.83;1.30;;;;;;;;;;4920138;29;20465;-60
2022/12/28 13:29:54;;;;;;;2.30;1.30;;;;;;;;;;4937134;29;20051;-60
2022/12/28 13:32:30;;;;;;;1.70;1.60;;;;;;;;;;4937043;29;20106;-61
2022/12/28 13:35:15;;;;;;;3.38;1.50;;;;;;;;;;4919520;29;20055;-61
2022/12/28 13:37:41;;;;;;;3.55;1.60;;;;;;;;;;4937113;29;20056;-61
2022/12/28 13:40:14;;;;;;;4.82;1.50;;;;;;;;;;4936854;29;20416;-61
2022/12/28 13:43:00;;;;;;;1.80;1.70;;;;;;;;;;4936984;29;20044;-60
2022/12/28 13:45:27;;;;;;;2.10;1.33;;;;;;;;;;4906325;29;20056;-60
2022/12/28 13:47:54;;;;;;;4.22;1.55;;;;;;;;;;4936766;29;20044;-61
2022/12/28 13:50:23;;;;;;;1.40;1.13;;;;;;;;;;4936702;29;20103;-60
2022/12/28 13:52:52;;;;;;;3.22;1.40;;;;;;;;;;4936583;29;20055;-60
2022/12/28 13:55:23;;;;;;;1.80;1.23;;;;;;;;;;4920587;29;20057;-60
2022/12/28 13:57:51;;;;;;;1.52;1.40;;;;;;;;;;4921141;29;20060;-61
2022/12/28 14:00:26;;;;;;;2.40;1.70;;;;;;;;;;4937734;29;20111;-60
2022/12/28 14:02:53;;;;;;;2.08;1.38;;;;;;;;;;4936423;29;20040;-60
2022/12/28 14:05:22;;;;;;;3.08;1.65;;;;;;;;;;4919086;29;20047;-62
2022/12/28 14:07:50;;;;;;;1.65;1.40;;;;;;;;;;4936653;29;20094;-60
2022/12/28 14:10:17;;;;;;;1.50;1.30;;;;;;;;;;4936721;29;20046;-63
2022/12/28 14:12:44;;;;;;;1.90;1.25;;;;;;;;;;4936475;29;20048;-64
2022/12/28 14:15:12;;;;;;;2.88;1.50;;;;;;;;;;4918820;29;20059;-62
2022/12/28 14:17:39;;;;;;;1.70;1.30;;;;;;;;;;4919225;29;20043;-60
2022/12/28 14:20:06;;;;;;;2.03;1.23;;;;;;;;;;4936276;29;20051;-61
2022/12/28 14:22:34;;;;;;;1.60;1.15;;;;;;;;;;4936331;29;20040;-61
2022/12/28 14:25:14;;;;;;;2.33;1.40;;;;;;;;;;4935962;29;20036;-61
2022/12/28 14:27:43;;;;;;;2.65;1.10;;;;;;;;;;4936185;29;20040;-60
2022/12/28 14:30:20;;;;;;;3.40;1.48;;;;;;;;;;4936088;29;20114;-62
2022/12/28 14:32:47;;;;;;;3.38;2.38;;;;;;;;;;4935374;29;20044;-62
2022/12/28 14:35:21;;;;;;;2.90;1.67;;;;;;;;;;4938588;29;20516;-62
2022/12/28 14:37:55;;;;;;;1.73;1.60;;;;;;;;;;4925062;29;20048;-62
2022/12/28 14:40:25;;;;;;;4.97;2.28;;;;;;;;;;4923254;29;20056;-61
2022/12/28 14:42:52;;;;;;;2.33;1.85;;;;;;;;;;4936355;29;20481;-61
2022/12/28 14:45:32;;;;;;;3.33;1.77;;;;;;;;;;4935746;29;20426;-61
2022/12/28 14:47:59;;;;;;;2.63;1.30;;;;;;;;;;4936068;29;20504;-61
2022/12/28 14:50:27;;;;;;;3.42;1.30;;;;;;;;;;4935866;29;20054;-62
2022/12/28 14:53:04;;;;;;;3.67;1.77;;;;;;;;;;4935733;29;20054;-62
2022/12/28 14:55:33;;;;;;;2.72;1.40;;;;;;;;;;4935366;29;20051;-62
2022/12/28 14:58:02;;;;;;;2.40;1.73;;;;;;;;;;4935612;29;20051;-61
2022/12/28 15:00:33;;;;;;;3.08;1.83;;;;;;;;;;4935727;29;20508;-62
2022/12/28 15:03:19;;;;;;;2.40;1.55;;;;;;;;;;4936340;29;20100;-61
2022/12/28 15:05:53;;;;;;;4.18;2.50;;;;;;;;;;4919198;29;20047;-62
2022/12/28 15:08:21;;;;;;;;;;;;;;;;;;4919978;29;20048;-60
2022/12/28 15:10:52;;;;;;;2.55;2.28;;;;;;;;;;4936175;29;19923;-62
2022/12/28 15:13:19;;;;;;;2.00;1.45;;;;;;;;;;4936599;29;20051;-62
2022/12/28 15:15:59;;;;;;;2.33;1.50;;;;;;;;;;4936009;29;20048;-62
2022/12/28 15:18:27;;;;;;;2.67;1.70;;;;;;;;;;4919951;29;20465;-62
2022/12/28 15:20:53;;;;;;;2.60;1.60;;;;;;;;;;4936747;29;20143;-63
2022/12/28 15:23:20;;;;;;;3.20;1.30;;;;;;;;;;4935934;29;20429;-61
2022/12/28 15:25:47;;;;;;;3.38;1.25;;;;;;;;;;4918588;29;20052;-62
2022/12/28 15:28:14;;;;;;;2.15;1.95;;;;;;;;;;4919087;29;20048;-63
2022/12/28 15:30:41;;;;;;;3.63;1.40;;;;;;;;;;4935768;29;20052;-62
2022/12/28 15:33:09;;;;;;;2.50;1.50;;;;;;;;;;4935287;29;20048;-62